createdAt,value
2023-05-10T00:00:32.341Z,70.99
2023-05-10T00:02:58.979Z,71.61
2023-05-10T00:05:25.763Z,70.98
2023-05-10T00:07:54.670Z,71.52
2023-05-10T00:10:21.301Z,70.97
2023-05-10T00:12:47.943Z,71.36
2023-05-10T00:15:14.688Z,71.67
2023-05-10T00:17:41.546Z,71.60
2023-05-10T00:20:08.709Z,71.55
2023-05-10T00:22:35.456Z,70.94
2023-05-10T00:25:02.398Z,71.74
2023-05-10T00:27:32.087Z,70.92
2023-05-10T00:29:58.769Z,71.50
2023-05-10T00:32:25.430Z,70.73
2023-05-10T00:34:55.956Z,70.74
2023-05-10T00:37:22.650Z,70.96
2023-05-10T00:39:54.256Z,71.00
2023-05-10T00:42:20.997Z,71.03
2023-05-10T00:44:49.802Z,70.55
2023-05-10T00:47:19.640Z,70.77
2023-05-10T00:49:46.968Z,71.13
2023-05-10T00:52:14.113Z,70.38
2023-05-10T00:54:40.759Z,71.04
2023-05-10T00:57:07.462Z,71.34
2023-05-10T00:59:36.465Z,71.23
2023-05-10T01:02:05.624Z,70.85
2023-05-10T01:04:32.470Z,71.39
2023-05-10T01:07:03.917Z,70.83
2023-05-10T01:09:30.728Z,71.27
2023-05-10T01:11:57.710Z,71.60
2023-05-10T01:14:25.869Z,71.51
2023-05-10T01:16:54.289Z,71.00
2023-05-10T01:19:27.003Z,71.25
2023-05-10T01:22:14.929Z,70.99
2023-05-10T01:25:03.745Z,71.66
2023-05-10T01:27:57.573Z,71.72
2023-05-10T01:30:48.365Z,70.75
2023-05-10T01:33:33.272Z,71.09
2023-05-10T01:36:12.854Z,71.47
2023-05-10T01:38:52.897Z,71.88
2023-05-10T01:41:31.929Z,71.30
2023-05-10T01:44:14.469Z,70.75
2023-05-10T01:46:42.006Z,71.24
2023-05-10T01:49:21.415Z,71.08
2023-05-10T01:51:55.973Z,70.87
2023-05-10T01:54:27.426Z,71.17
2023-05-10T01:56:59.779Z,70.71
2023-05-10T01:59:33.088Z,70.79
2023-05-10T02:02:03.183Z,70.77
2023-05-10T02:04:32.913Z,70.60
2023-05-10T02:07:00.027Z,70.54
2023-05-10T02:09:28.947Z,70.84
2023-05-10T02:11:56.521Z,70.85
2023-05-10T02:14:25.475Z,70.84
2023-05-10T02:16:54.952Z,71.38
2023-05-10T02:19:26.177Z,71.06
2023-05-10T02:21:55.605Z,70.56
2023-05-10T02:24:24.996Z,70.58
2023-05-10T02:26:54.714Z,70.96
2023-05-10T02:29:25.859Z,70.59
2023-05-10T02:31:55.226Z,70.87
2023-05-10T02:34:27.298Z,70.34
2023-05-10T02:36:55.996Z,70.61
2023-05-10T02:39:23.289Z,70.87
2023-05-10T02:41:51.465Z,70.85
2023-05-10T02:44:20.411Z,70.43
2023-05-10T02:46:48.032Z,70.78
2023-05-10T02:49:15.626Z,71.33
2023-05-10T02:51:48.695Z,71.59
2023-05-10T02:54:27.217Z,71.00
2023-05-10T02:56:59.632Z,71.54
2023-05-10T02:59:26.309Z,71.23
2023-05-10T03:01:53.108Z,71.36
2023-05-10T03:04:19.838Z,71.41
2023-05-10T03:06:46.750Z,71.43
2023-05-10T03:09:16.701Z,71.77
2023-05-10T03:12:12.613Z,72.02
2023-05-10T03:14:58.119Z,71.72
2023-05-10T03:17:55.280Z,72.02
2023-05-10T03:20:27.000Z,71.89
2023-05-10T03:22:59.278Z,71.35
2023-05-10T03:25:33.456Z,72.26
2023-05-10T03:28:03.331Z,71.89
2023-05-10T03:30:30.923Z,72.11
2023-05-10T03:33:05.025Z,71.54
2023-05-10T03:35:31.862Z,72.24
2023-05-10T03:37:58.468Z,72.00
2023-05-10T03:40:26.892Z,72.00
2023-05-10T03:42:53.488Z,72.60
2023-05-10T03:45:22.369Z,72.46
2023-05-10T03:47:49.028Z,72.77
2023-05-10T03:50:15.886Z,72.21
2023-05-10T03:52:42.897Z,72.68
2023-05-10T03:55:11.988Z,72.34
2023-05-10T03:57:41.326Z,72.59
2023-05-10T04:00:08.407Z,72.77
2023-05-10T04:02:38.295Z,72.44
2023-05-10T04:05:08.262Z,72.79
2023-05-10T04:07:34.957Z,73.05
2023-05-10T04:10:06.621Z,72.69
2023-05-10T04:12:33.376Z,73.09
2023-05-10T04:15:02.240Z,73.33
2023-05-10T04:17:28.948Z,73.50
2023-05-10T04:19:58.526Z,73.52
2023-05-10T04:22:28.858Z,73.95
2023-05-10T04:24:55.575Z,73.63
2023-05-10T04:27:22.162Z,73.85
2023-05-10T04:29:49.499Z,73.26
2023-05-10T04:32:17.369Z,73.79
2023-05-10T04:34:44.661Z,72.92
2023-05-10T04:37:11.290Z,73.60
2023-05-10T04:39:42.291Z,73.96
2023-05-10T04:42:12.190Z,73.68
2023-05-10T04:44:38.775Z,73.95
2023-05-10T04:47:05.711Z,74.13
2023-05-10T04:49:34.492Z,73.43
2023-05-10T04:52:03.398Z,73.68
2023-05-10T04:54:29.979Z,73.81
2023-05-10T04:56:56.598Z,73.59
2023-05-10T04:59:23.253Z,73.66
2023-05-10T05:01:49.928Z,73.50
2023-05-10T05:04:18.891Z,73.43
2023-05-10T05:06:45.649Z,73.43
2023-05-10T05:09:12.242Z,72.66
2023-05-10T05:11:39.262Z,72.75
2023-05-10T05:14:05.981Z,73.27
2023-05-10T05:16:34.805Z,73.08
2023-05-10T05:19:02.056Z,73.27
2023-05-10T05:21:29.301Z,73.66
2023-05-10T05:23:58.112Z,73.53
2023-05-10T05:26:24.826Z,73.47
2023-05-10T05:28:54.844Z,73.88
2023-05-10T05:31:22.056Z,73.70
2023-05-10T05:33:48.757Z,73.40
2023-05-10T05:36:15.393Z,73.74
2023-05-10T05:38:42.121Z,73.66
2023-05-10T05:41:08.748Z,73.06
2023-05-10T05:43:38.314Z,73.13
2023-05-10T05:46:05.576Z,73.32
2023-05-10T05:48:34.703Z,72.65
2023-05-10T05:51:01.449Z,73.36
2023-05-10T05:53:30.632Z,72.51
2023-05-10T05:56:01.516Z,72.66
2023-05-10T05:58:30.609Z,72.05
2023-05-10T06:00:57.217Z,71.87
2023-05-10T06:03:26.939Z,71.90
2023-05-10T06:05:54.862Z,71.12
2023-05-10T06:08:21.630Z,70.93
2023-05-10T06:10:48.239Z,70.03
2023-05-10T06:13:17.424Z,69.58
2023-05-10T06:15:46.587Z,69.64
2023-05-10T06:18:15.396Z,69.09
2023-05-10T06:20:43.125Z,69.28
2023-05-10T06:23:12.086Z,69.06
2023-05-10T06:25:38.694Z,68.19
2023-05-10T06:28:05.292Z,67.99
2023-05-10T06:30:31.973Z,67.67
2023-05-10T06:32:58.731Z,67.96
2023-05-10T06:35:25.429Z,67.91
2023-05-10T06:37:52.574Z,67.54
2023-05-10T06:40:19.439Z,67.13
2023-05-10T06:42:49.379Z,66.97
2023-05-10T06:45:19.520Z,66.58
2023-05-10T06:47:48.534Z,66.28
2023-05-10T06:50:15.194Z,66.05
2023-05-10T06:52:41.917Z,66.69
2023-05-10T06:55:11.198Z,66.00
2023-05-10T06:57:37.830Z,65.91
2023-05-10T07:00:08.098Z,65.99
2023-05-10T07:02:37.824Z,65.19
2023-05-10T07:05:04.774Z,64.74
2023-05-10T07:07:31.476Z,64.73
2023-05-10T07:10:00.586Z,64.68
2023-05-10T07:12:29.792Z,64.42
2023-05-10T07:14:58.748Z,64.59
2023-05-10T07:17:27.930Z,64.99
2023-05-10T07:19:57.150Z,64.78
2023-05-10T07:22:25.878Z,64.81
2023-05-10T07:24:57.398Z,64.19
2023-05-10T07:27:26.449Z,63.09
2023-05-10T07:29:55.784Z,63.08
2023-05-10T07:32:25.129Z,62.24
2023-05-10T07:34:54.080Z,60.90
2023-05-10T07:37:20.812Z,60.13
2023-05-10T07:39:49.766Z,59.42
2023-05-10T07:42:18.685Z,57.80
2023-05-10T07:44:45.389Z,56.21
2023-05-10T07:47:12.199Z,54.46
2023-05-10T07:49:39.400Z,52.24
2023-05-10T07:52:05.986Z,50.44
2023-05-10T07:54:32.878Z,49.30
2023-05-10T07:57:00.786Z,48.10
2023-05-10T07:59:27.557Z,46.13
2023-05-10T08:01:54.403Z,44.79
2023-05-10T08:04:21.120Z,43.42
2023-05-10T08:06:50.143Z,42.04
2023-05-10T08:09:17.173Z,40.98
2023-05-10T08:11:43.892Z,40.23
2023-05-10T08:14:10.596Z,39.28
2023-05-10T08:16:39.900Z,39.11
2023-05-10T08:19:09.142Z,38.51
2023-05-10T08:21:36.861Z,37.99
2023-05-10T08:24:06.437Z,36.79
2023-05-10T08:26:37.646Z,36.40
2023-05-10T08:29:04.313Z,35.62
2023-05-10T08:31:33.657Z,35.17
2023-05-10T08:34:02.768Z,35.16
2023-05-10T08:36:33.140Z,34.50
2023-05-10T08:38:59.857Z,33.10
2023-05-10T08:41:31.123Z,32.47
2023-05-10T08:43:57.768Z,31.58
2023-05-10T08:46:24.663Z,30.81
2023-05-10T08:48:53.214Z,30.96
2023-05-10T08:51:23.630Z,30.74
2023-05-10T08:53:50.601Z,30.24
2023-05-10T08:56:18.725Z,29.69
2023-05-10T08:58:45.613Z,30.82
2023-05-10T09:01:16.091Z,30.25
2023-05-10T09:03:45.669Z,31.21
2023-05-10T09:06:14.315Z,30.60
2023-05-10T09:08:42.751Z,30.18
2023-05-10T09:11:11.062Z,31.82
2023-05-10T09:13:37.809Z,32.46
2023-05-10T09:16:13.896Z,31.91
2023-05-10T09:18:48.371Z,32.40
2023-05-10T09:21:15.079Z,32.19
2023-05-10T09:23:48.235Z,32.12
2023-05-10T09:26:15.425Z,32.18
2023-05-10T09:29:01.116Z,31.66
2023-05-10T09:31:47.686Z,32.10
2023-05-10T09:34:29.834Z,32.63
2023-05-10T09:37:05.881Z,32.16
2023-05-10T09:39:42.476Z,32.59
2023-05-10T09:42:10.678Z,31.63
2023-05-10T09:44:39.255Z,31.44
2023-05-10T09:47:07.176Z,30.56
2023-05-10T09:49:34.383Z,29.73
2023-05-10T09:52:05.611Z,29.75
2023-05-10T09:54:35.961Z,30.24
2023-05-10T09:57:06.070Z,29.36
2023-05-10T09:59:35.976Z,30.50
2023-05-10T10:02:03.692Z,30.34
2023-05-10T10:04:30.518Z,29.42
2023-05-10T10:07:04.859Z,28.93
2023-05-10T10:09:34.994Z,29.30
2023-05-10T10:12:03.151Z,29.00
2023-05-10T10:14:30.555Z,29.39
2023-05-10T10:17:08.043Z,29.86
2023-05-10T10:19:36.977Z,30.75
2023-05-10T10:22:04.220Z,31.45
2023-05-10T10:24:33.462Z,31.51
2023-05-10T10:27:16.488Z,32.14
2023-05-10T10:29:53.452Z,32.44
2023-05-10T10:32:31.264Z,33.09
2023-05-10T10:35:01.464Z,32.70
2023-05-10T10:37:44.492Z,32.41
2023-05-10T10:40:35.177Z,32.64
2023-05-10T10:43:24.423Z,32.73
2023-05-10T10:46:11.248Z,33.37
2023-05-10T10:48:37.919Z,34.07
2023-05-10T10:51:04.558Z,34.87
2023-05-10T10:53:31.692Z,34.80
2023-05-10T10:56:10.491Z,35.36
2023-05-10T10:58:41.087Z,36.25
2023-05-10T11:01:16.431Z,37.20
2023-05-10T11:04:08.128Z,37.51
2023-05-10T11:06:39.349Z,37.68
2023-05-10T11:09:10.956Z,39.50
2023-05-10T11:11:49.778Z,40.59
2023-05-10T11:14:24.231Z,41.67
2023-05-10T11:16:51.188Z,43.12
2023-05-10T11:19:18.969Z,45.38
2023-05-10T11:21:50.208Z,44.40
2023-05-10T11:24:23.605Z,43.19
2023-05-10T11:26:54.372Z,43.40
2023-05-10T11:29:21.358Z,44.09
2023-05-10T11:31:49.584Z,43.12
2023-05-10T11:34:32.370Z,42.19
2023-05-10T11:36:59.327Z,42.16
2023-05-10T11:39:30.983Z,41.63
2023-05-10T11:41:59.065Z,41.38
2023-05-10T11:44:33.116Z,41.51
2023-05-10T11:47:01.818Z,40.77
2023-05-10T11:49:28.793Z,39.58
2023-05-10T11:52:05.481Z,39.43
2023-05-10T11:54:32.262Z,40.08
2023-05-10T11:56:58.857Z,40.13
2023-05-10T11:59:26.309Z,39.83
2023-05-10T12:01:53.077Z,39.59
2023-05-10T12:04:20.584Z,39.78
2023-05-10T12:06:50.396Z,38.48
2023-05-10T12:09:28.101Z,38.89
2023-05-10T12:12:03.452Z,39.60
2023-05-10T12:14:34.356Z,39.95
2023-05-10T12:17:00.990Z,40.08
2023-05-10T12:19:27.641Z,42.30
2023-05-10T12:21:58.816Z,43.46
2023-05-10T12:24:26.445Z,44.09
2023-05-10T12:27:05.248Z,45.79
2023-05-10T12:29:34.409Z,46.55
2023-05-10T12:32:01.326Z,47.96
2023-05-10T12:34:37.172Z,49.46
2023-05-10T12:37:07.443Z,49.42
2023-05-10T12:39:50.501Z,50.83
2023-05-10T12:42:17.648Z,51.77
2023-05-10T12:44:44.228Z,51.65
2023-05-10T12:47:13.504Z,51.62
2023-05-10T12:49:42.275Z,51.35
2023-05-10T12:52:11.225Z,50.11
2023-05-10T12:54:37.840Z,49.81
2023-05-10T12:57:04.447Z,49.28
2023-05-10T12:59:31.155Z,49.17
2023-05-10T13:01:59.118Z,49.22
2023-05-10T13:04:25.728Z,48.84
2023-05-10T13:06:52.399Z,48.22
2023-05-10T13:09:19.013Z,48.41
2023-05-10T13:11:49.077Z,48.75
2023-05-10T13:14:18.002Z,48.87
2023-05-10T13:16:44.830Z,49.65
2023-05-10T13:19:12.570Z,49.74
2023-05-10T13:21:47.083Z,50.04
2023-05-10T13:24:16.715Z,49.71
2023-05-10T13:26:45.988Z,49.40
2023-05-10T13:29:12.641Z,50.09
2023-05-10T13:31:39.285Z,50.28
2023-05-10T13:34:06.441Z,50.25
2023-05-10T13:36:33.059Z,49.71
2023-05-10T13:38:59.813Z,49.65
2023-05-10T13:41:26.536Z,49.20
2023-05-10T13:43:56.057Z,49.19
2023-05-10T13:46:25.219Z,49.14
2023-05-10T13:48:51.900Z,49.29
2023-05-10T13:51:18.682Z,48.78
2023-05-10T13:53:45.314Z,48.61
2023-05-10T13:56:11.987Z,48.81
2023-05-10T13:58:38.679Z,48.94
2023-05-10T14:01:05.949Z,49.05
2023-05-10T14:03:33.660Z,49.76
2023-05-10T14:06:00.504Z,49.38
2023-05-10T14:08:28.686Z,49.50
2023-05-10T14:10:57.315Z,50.20
2023-05-10T14:13:24.740Z,50.45
2023-05-10T14:15:57.307Z,50.58
2023-05-10T14:18:24.035Z,50.62
2023-05-10T14:20:50.782Z,51.01
2023-05-10T14:23:17.643Z,51.41
2023-05-10T14:25:44.567Z,50.94
2023-05-10T14:28:11.127Z,51.51
2023-05-10T14:30:40.048Z,51.37
2023-05-10T14:33:09.122Z,52.05
2023-05-10T14:35:35.909Z,52.20
2023-05-10T14:38:04.838Z,53.52
2023-05-10T14:40:34.123Z,53.57
2023-05-10T14:43:03.304Z,52.96
2023-05-10T14:45:30.101Z,53.06
2023-05-10T14:47:56.710Z,52.76
2023-05-10T14:50:36.579Z,52.16
2023-05-10T14:53:04.381Z,51.87
2023-05-10T14:55:33.704Z,51.37
2023-05-10T14:58:00.421Z,51.03
2023-05-10T15:00:28.912Z,51.66
2023-05-10T15:02:58.662Z,51.15
2023-05-10T15:05:25.863Z,51.32
2023-05-10T15:07:53.006Z,51.37
2023-05-10T15:10:24.309Z,51.51
2023-05-10T15:12:53.669Z,51.81
2023-05-10T15:15:22.841Z,51.62
2023-05-10T15:17:49.687Z,51.80
2023-05-10T15:20:18.962Z,52.36
2023-05-10T15:22:45.617Z,52.97
2023-05-10T15:25:15.270Z,53.45
2023-05-10T15:27:44.660Z,54.07
2023-05-10T15:30:11.947Z,54.34
2023-05-10T15:32:41.588Z,54.92
2023-05-10T15:35:11.559Z,55.49
2023-05-10T15:37:40.950Z,55.56
2023-05-10T15:40:07.940Z,55.96
2023-05-10T15:42:36.780Z,55.73
2023-05-10T15:45:03.761Z,55.60
2023-05-10T15:47:31.302Z,55.06
2023-05-10T15:49:58.013Z,54.89
2023-05-10T15:52:24.678Z,54.74
2023-05-10T15:54:51.699Z,54.25
2023-05-10T15:57:20.960Z,54.27
2023-05-10T15:59:47.692Z,53.98
2023-05-10T16:02:14.630Z,54.47
2023-05-10T16:04:46.113Z,53.52
2023-05-10T16:07:12.747Z,53.60
2023-05-10T16:09:39.416Z,53.80
2023-05-10T16:12:06.097Z,54.09
2023-05-10T16:14:32.879Z,54.20
2023-05-10T16:17:03.162Z,54.24
2023-05-10T16:19:31.961Z,54.08
2023-05-10T16:21:58.808Z,53.37
2023-05-10T16:24:27.011Z,53.12
2023-05-10T16:26:53.635Z,52.90
2023-05-10T16:29:22.689Z,53.18
2023-05-10T16:31:49.382Z,52.45
2023-05-10T16:34:16.543Z,52.67
2023-05-10T16:36:45.438Z,52.80
2023-05-10T16:39:12.081Z,52.30
2023-05-10T16:41:38.698Z,52.49
2023-05-10T16:44:05.523Z,52.49
2023-05-10T16:46:33.190Z,52.30
2023-05-10T16:49:00.350Z,52.36
2023-05-10T16:51:38.514Z,52.61
2023-05-10T16:54:07.759Z,52.20
2023-05-10T16:56:34.422Z,52.43
2023-05-10T16:59:01.280Z,52.68
2023-05-10T17:01:30.296Z,52.99
2023-05-10T17:03:59.318Z,53.08
2023-05-10T17:06:26.096Z,53.34
2023-05-10T17:08:54.988Z,53.58
2023-05-10T17:11:21.964Z,53.26
2023-05-10T17:13:48.662Z,53.36
2023-05-10T17:16:15.419Z,53.59
2023-05-10T17:18:45.889Z,53.57
2023-05-10T17:21:12.666Z,53.66
2023-05-10T17:23:39.272Z,53.83
2023-05-10T17:26:09.845Z,54.36
2023-05-10T17:28:36.572Z,54.18
2023-05-10T17:31:03.305Z,54.33
2023-05-10T17:33:32.446Z,54.57
2023-05-10T17:36:01.447Z,54.85
2023-05-10T17:38:28.497Z,54.68
2023-05-10T17:40:55.224Z,54.86
2023-05-10T17:43:26.132Z,55.01
2023-05-10T17:45:53.007Z,55.07
2023-05-10T17:48:22.055Z,54.66
2023-05-10T17:50:52.755Z,54.29
2023-05-10T17:53:21.699Z,54.16
2023-05-10T17:55:48.432Z,54.30
2023-05-10T17:58:17.287Z,53.92
2023-05-10T18:00:43.946Z,54.14
2023-05-10T18:03:11.647Z,54.02
2023-05-10T18:05:40.828Z,53.84
2023-05-10T18:08:08.411Z,54.22
2023-05-10T18:10:39.968Z,54.06
2023-05-10T18:13:08.783Z,53.97
2023-05-10T18:15:35.868Z,54.36
2023-05-10T18:18:04.290Z,54.54
2023-05-10T18:20:31.904Z,54.44
2023-05-10T18:22:58.699Z,54.25
2023-05-10T18:25:27.961Z,54.84
2023-05-10T18:27:54.631Z,54.78
2023-05-10T18:30:22.686Z,55.21
2023-05-10T18:32:49.400Z,55.04
2023-05-10T18:35:16.413Z,55.60
2023-05-10T18:37:45.683Z,55.76
2023-05-10T18:40:14.818Z,56.12
2023-05-10T18:42:44.233Z,56.43
2023-05-10T18:45:11.677Z,56.69
2023-05-10T18:47:38.284Z,56.98
2023-05-10T18:50:05.643Z,57.22
2023-05-10T18:52:32.291Z,57.18
2023-05-10T18:54:58.919Z,57.47
2023-05-10T18:57:25.629Z,57.93
2023-05-10T18:59:52.256Z,58.11
2023-05-10T19:02:19.033Z,58.58
2023-05-10T19:04:46.302Z,58.81
2023-05-10T19:07:13.030Z,58.82
2023-05-10T19:09:39.717Z,58.98
2023-05-10T19:12:06.425Z,58.60
2023-05-10T19:14:33.081Z,57.78
2023-05-10T19:17:02.465Z,56.49
2023-05-10T19:19:30.217Z,55.26
2023-05-10T19:21:56.937Z,54.69
2023-05-10T19:24:25.622Z,54.93
2023-05-10T19:26:52.662Z,54.72
2023-05-10T19:29:21.532Z,53.83
2023-05-10T19:31:48.984Z,54.23
2023-05-10T19:34:16.290Z,53.85
2023-05-10T19:36:42.957Z,54.32
2023-05-10T19:39:11.881Z,53.92
2023-05-10T19:41:38.771Z,53.96
2023-05-10T19:44:07.728Z,54.05
2023-05-10T19:46:34.458Z,53.92
2023-05-10T19:49:01.147Z,53.49
2023-05-10T19:51:27.824Z,53.35
2023-05-10T19:53:57.346Z,53.82
2023-05-10T19:56:23.986Z,53.23
2023-05-10T19:58:53.289Z,53.99
2023-05-10T20:01:20.018Z,52.98
2023-05-10T20:03:46.717Z,53.38
2023-05-10T20:06:13.471Z,52.97
2023-05-10T20:08:40.205Z,53.64
2023-05-10T20:11:06.816Z,53.65
2023-05-10T20:13:33.620Z,53.60
2023-05-10T20:16:00.737Z,53.43
2023-05-10T20:18:32.378Z,53.41
2023-05-10T20:21:00.545Z,53.75
2023-05-10T20:23:29.422Z,53.50
2023-05-10T20:25:56.065Z,53.73
2023-05-10T20:28:27.225Z,53.73
2023-05-10T20:30:55.315Z,53.77
2023-05-10T20:33:22.771Z,54.28
2023-05-10T20:35:52.506Z,54.90
2023-05-10T20:38:21.989Z,54.87
2023-05-10T20:40:51.279Z,54.97
2023-05-10T20:43:18.901Z,54.62
2023-05-10T20:45:45.595Z,54.82
2023-05-10T20:48:12.416Z,54.83
2023-05-10T20:50:41.248Z,55.34
2023-05-10T20:53:14.599Z,54.86
2023-05-10T20:55:41.348Z,54.95
2023-05-10T20:58:10.397Z,54.95
2023-05-10T21:00:39.294Z,54.57
2023-05-10T21:03:06.065Z,55.25
2023-05-10T21:05:32.891Z,55.39
2023-05-10T21:07:59.620Z,55.27
2023-05-10T21:10:28.358Z,55.04
2023-05-10T21:12:55.938Z,55.69
2023-05-10T21:15:24.535Z,55.91
2023-05-10T21:17:51.781Z,55.89
2023-05-10T21:20:18.885Z,55.34
2023-05-10T21:22:45.829Z,55.19
2023-05-10T21:25:14.749Z,55.72
2023-05-10T21:27:41.497Z,56.01
2023-05-10T21:30:11.678Z,56.09
2023-05-10T21:32:38.544Z,56.03
2023-05-10T21:35:05.874Z,55.76
2023-05-10T21:37:32.687Z,56.49
2023-05-10T21:39:59.350Z,56.80
2023-05-10T21:42:26.265Z,56.50
2023-05-10T21:44:53.010Z,56.31
2023-05-10T21:47:22.585Z,56.52
2023-05-10T21:49:50.575Z,56.95
2023-05-10T21:52:17.451Z,56.99
2023-05-10T21:54:44.219Z,57.27
2023-05-10T21:57:10.906Z,58.03
2023-05-10T21:59:40.131Z,57.31
2023-05-10T22:02:06.819Z,57.86
2023-05-10T22:04:33.582Z,57.64
2023-05-10T22:07:00.462Z,57.58
2023-05-10T22:09:27.134Z,57.84
2023-05-10T22:11:53.770Z,58.34
2023-05-10T22:14:22.898Z,58.29
2023-05-10T22:16:51.864Z,58.64
2023-05-10T22:19:18.735Z,58.69
2023-05-10T22:21:47.638Z,58.85
2023-05-10T22:24:14.501Z,58.50
2023-05-10T22:26:43.395Z,58.89
2023-05-10T22:29:12.562Z,59.39
2023-05-10T22:31:39.334Z,59.47
2023-05-10T22:34:06.264Z,59.60
2023-05-10T22:36:32.951Z,59.27
2023-05-10T22:38:59.568Z,59.18
2023-05-10T22:41:26.280Z,60.00
2023-05-10T22:43:55.557Z,59.75
2023-05-10T22:46:22.295Z,59.99
2023-05-10T22:48:49.069Z,59.88
2023-05-10T22:51:21.212Z,60.00
2023-05-10T22:53:48.107Z,60.42
2023-05-10T22:56:17.370Z,60.79
2023-05-10T22:58:44.285Z,60.65
2023-05-10T23:01:11.131Z,61.29
2023-05-10T23:03:37.772Z,61.30
2023-05-10T23:06:04.994Z,61.49
2023-05-10T23:08:36.583Z,61.37
2023-05-10T23:11:03.312Z,61.57
2023-05-10T23:13:29.989Z,61.12
2023-05-10T23:15:56.851Z,61.80
2023-05-10T23:18:25.877Z,61.78
2023-05-10T23:20:55.409Z,61.95
2023-05-10T23:23:24.637Z,62.29
2023-05-10T23:25:53.456Z,62.26
2023-05-10T23:28:20.141Z,62.42
2023-05-10T23:30:46.944Z,62.77
2023-05-10T23:33:14.364Z,62.22
2023-05-10T23:35:41.361Z,62.66
2023-05-10T23:38:08.155Z,63.12
2023-05-10T23:40:35.726Z,63.31
2023-05-10T23:43:02.610Z,63.34
2023-05-10T23:45:29.391Z,63.24
2023-05-10T23:47:56.265Z,63.40
2023-05-10T23:50:23.045Z,63.59
2023-05-10T23:52:49.640Z,63.71
2023-05-10T23:55:16.464Z,63.32
2023-05-10T23:57:45.471Z,63.81
